createdAt,value
2022-09-28T00:01:10.061Z,1.80
2022-09-28T00:03:39.369Z,1.30
2022-09-28T00:06:08.918Z,1.20
2022-09-28T00:08:37.398Z,1.33
2022-09-28T00:11:07.067Z,1.30
2022-09-28T00:13:35.782Z,1.63
2022-09-28T00:16:04.935Z,1.43
2022-09-28T00:18:33.270Z,1.23
2022-09-28T00:21:04.792Z,2.10
2022-09-28T00:23:33.239Z,1.37
2022-09-28T00:26:05.341Z,2.07
2022-09-28T00:28:33.622Z,2.43
2022-09-28T00:31:01.806Z,2.40
2022-09-28T00:33:29.942Z,2.40
2022-09-28T00:35:58.630Z,1.40
2022-09-28T00:38:30.944Z,1.70
2022-09-28T00:40:59.685Z,2.53
2022-09-28T00:43:28.091Z,1.80
2022-09-28T00:45:59.661Z,1.40
2022-09-28T00:48:29.421Z,2.60
2022-09-28T00:50:58.095Z,2.67
2022-09-28T00:53:28.234Z,2.17
2022-09-28T00:56:00.462Z,2.50
2022-09-28T00:58:29.946Z,2.67
2022-09-28T01:00:59.022Z,2.73
2022-09-28T01:03:27.830Z,1.83
2022-09-28T01:05:56.842Z,1.70
2022-09-28T01:08:25.395Z,2.37
2022-09-28T01:10:53.346Z,2.83
2022-09-28T01:13:23.149Z,2.60
2022-09-28T01:15:57.918Z,2.40
2022-09-28T01:18:33.635Z,1.73
2022-09-28T01:21:03.464Z,2.40
2022-09-28T01:24:10.380Z,2.80
2022-09-28T01:26:48.998Z,2.73
2022-09-28T01:29:20.828Z,2.37
2022-09-28T01:31:52.778Z,2.60
2022-09-28T01:34:25.766Z,2.60
2022-09-28T01:36:56.768Z,2.63
2022-09-28T01:39:29.460Z,2.73
2022-09-28T01:42:02.133Z,2.80
2022-09-28T01:44:32.237Z,2.50
2022-09-28T01:47:04.242Z,3.30
2022-09-28T01:49:35.536Z,2.50
2022-09-28T01:52:05.917Z,1.97
2022-09-28T01:54:38.890Z,3.17
2022-09-28T01:57:10.974Z,2.70
2022-09-28T01:59:40.637Z,2.83
2022-09-28T02:02:12.926Z,3.10
2022-09-28T02:04:45.274Z,1.70
2022-09-28T02:07:15.265Z,3.40
2022-09-28T02:09:47.659Z,1.30
2022-09-28T02:12:24.454Z,3.10
2022-09-28T02:14:54.139Z,3.30
2022-09-28T02:17:22.214Z,2.87
2022-09-28T02:19:50.332Z,2.80
2022-09-28T02:22:25.140Z,2.90
2022-09-28T02:24:56.511Z,3.10
2022-09-28T02:27:33.174Z,3.30
2022-09-28T02:30:01.078Z,2.17
2022-09-28T02:32:29.578Z,2.67
2022-09-28T02:34:57.514Z,1.93
2022-09-28T02:37:25.508Z,2.90
2022-09-28T02:39:53.399Z,2.90
2022-09-28T02:42:23.638Z,1.83
2022-09-28T02:45:02.046Z,2.27
2022-09-28T02:47:43.322Z,3.03
2022-09-28T02:50:17.430Z,2.57
2022-09-28T02:53:01.097Z,1.40
2022-09-28T02:55:38.998Z,1.37
2022-09-28T02:58:22.955Z,3.40
2022-09-28T03:00:58.478Z,1.43
2022-09-28T03:03:33.832Z,1.90
2022-09-28T03:06:04.710Z,1.73
2022-09-28T03:08:36.199Z,2.13
2022-09-28T03:11:05.955Z,2.50
2022-09-28T03:13:34.685Z,2.10
2022-09-28T03:16:12.154Z,2.47
2022-09-28T03:18:40.524Z,2.20
2022-09-28T03:21:09.034Z,2.10
2022-09-28T03:23:36.999Z,2.07
2022-09-28T03:26:05.260Z,2.17
2022-09-28T03:28:34.662Z,1.83
2022-09-28T03:31:02.693Z,3.03
2022-09-28T03:33:32.108Z,1.40
2022-09-28T03:36:00.226Z,1.70
2022-09-28T03:38:28.166Z,2.67
2022-09-28T03:40:56.694Z,1.43
2022-09-28T03:43:25.126Z,1.50
2022-09-28T03:45:54.607Z,2.37
2022-09-28T03:48:27.608Z,2.57
2022-09-28T03:51:00.957Z,2.33
2022-09-28T03:53:29.692Z,2.50
2022-09-28T03:55:58.030Z,1.60
2022-09-28T03:58:25.922Z,1.70
2022-09-28T04:00:53.910Z,1.10
2022-09-28T04:03:21.966Z,1.20
2022-09-28T04:05:50.387Z,1.47
2022-09-28T04:08:19.878Z,2.70
2022-09-28T04:10:47.981Z,3.43
2022-09-28T04:13:15.845Z,2.97
2022-09-28T04:15:44.250Z,2.73
2022-09-28T04:18:13.582Z,1.20
2022-09-28T04:20:45.429Z,3.30
2022-09-28T04:23:13.582Z,1.47
2022-09-28T04:25:45.876Z,1.33
2022-09-28T04:28:30.966Z,1.97
2022-09-28T04:30:58.882Z,1.30
2022-09-28T04:33:26.853Z,1.53
2022-09-28T04:35:54.907Z,2.70
2022-09-28T04:38:35.845Z,1.80
2022-09-28T04:41:12.474Z,2.60
2022-09-28T04:43:40.462Z,1.70
2022-09-28T04:46:08.433Z,3.50
2022-09-28T04:48:36.602Z,2.93
2022-09-28T04:51:04.738Z,1.83
2022-09-28T04:53:33.031Z,2.13
2022-09-28T04:56:02.605Z,2.97
2022-09-28T04:58:32.341Z,2.17
2022-09-28T05:01:01.678Z,3.03
2022-09-28T05:03:30.042Z,3.33
2022-09-28T05:05:57.962Z,2.17
2022-09-28T05:08:26.322Z,1.50
2022-09-28T05:10:58.969Z,1.40
2022-09-28T05:13:26.969Z,2.30
2022-09-28T05:16:00.654Z,1.20
2022-09-28T05:18:31.066Z,1.53
2022-09-28T05:20:59.018Z,2.20
2022-09-28T05:23:26.901Z,2.93
2022-09-28T05:25:55.010Z,2.87
2022-09-28T05:28:26.336Z,2.93
2022-09-28T05:30:54.402Z,2.60
2022-09-28T05:33:23.670Z,1.50
2022-09-28T05:35:55.101Z,2.17
2022-09-28T05:38:24.904Z,1.40
2022-09-28T05:40:52.887Z,1.77
2022-09-28T05:43:20.847Z,3.27
2022-09-28T05:45:54.312Z,2.00
2022-09-28T05:48:24.781Z,1.57
2022-09-28T05:50:53.010Z,1.50
2022-09-28T05:53:21.229Z,3.63
2022-09-28T05:55:49.243Z,3.53
2022-09-28T05:58:17.422Z,1.53
2022-09-28T06:00:45.467Z,3.50
2022-09-28T06:03:15.151Z,3.30
2022-09-28T06:05:45.325Z,4.07
2022-09-28T06:08:13.222Z,4.00
2022-09-28T06:10:41.586Z,2.80
2022-09-28T06:13:10.489Z,4.27
2022-09-28T06:15:39.133Z,4.37
2022-09-28T06:18:08.713Z,4.27
2022-09-28T06:20:38.426Z,4.97
2022-09-28T06:23:07.758Z,3.23
2022-09-28T06:25:35.800Z,3.90
2022-09-28T06:28:05.454Z,4.90
2022-09-28T06:30:35.413Z,4.07
2022-09-28T06:33:03.777Z,4.60
2022-09-28T06:35:32.978Z,3.10
2022-09-28T06:38:01.687Z,4.17
2022-09-28T06:40:31.063Z,4.20
2022-09-28T06:43:00.182Z,5.60
2022-09-28T06:45:29.485Z,4.27
2022-09-28T06:47:58.530Z,4.33
2022-09-28T06:50:26.732Z,5.33
2022-09-28T06:52:55.178Z,1.87
2022-09-28T06:55:23.354Z,1.93
2022-09-28T06:58:00.566Z,5.67
2022-09-28T07:00:28.784Z,5.00
2022-09-28T07:02:56.821Z,2.43
2022-09-28T07:05:27.202Z,3.57
2022-09-28T07:07:56.293Z,3.90
2022-09-28T07:10:24.560Z,1.80
2022-09-28T07:12:52.865Z,1.97
2022-09-28T07:15:22.726Z,5.47
2022-09-28T07:18:00.081Z,4.70
2022-09-28T07:20:29.906Z,5.43
2022-09-28T07:23:08.341Z,2.87
2022-09-28T07:25:44.450Z,4.90
2022-09-28T07:28:12.766Z,2.30
2022-09-28T07:30:43.478Z,2.03
2022-09-28T07:33:14.654Z,2.97
2022-09-28T07:35:43.332Z,4.10
2022-09-28T07:38:12.429Z,3.60
2022-09-28T07:40:57.807Z,2.10
2022-09-28T07:43:25.730Z,5.90
2022-09-28T07:45:55.774Z,5.60
2022-09-28T07:48:23.928Z,5.10
2022-09-28T07:50:52.786Z,6.70
2022-09-28T07:53:21.212Z,4.47
2022-09-28T07:55:52.364Z,6.33
2022-09-28T07:58:20.868Z,7.17
2022-09-28T08:00:49.165Z,5.73
2022-09-28T08:03:19.599Z,6.03
2022-09-28T08:05:48.148Z,5.87
2022-09-28T08:08:16.594Z,5.03
2022-09-28T08:10:47.251Z,6.37
2022-09-28T08:13:16.700Z,4.97
2022-09-28T08:15:45.150Z,5.50
2022-09-28T08:18:13.055Z,7.07
2022-09-28T08:20:59.908Z,6.63
2022-09-28T08:23:27.797Z,5.93
2022-09-28T08:25:55.886Z,6.30
2022-09-28T08:28:24.712Z,6.27
2022-09-28T08:30:53.264Z,6.50
2022-09-28T08:33:22.346Z,5.90
2022-09-28T08:35:57.500Z,6.33
2022-09-28T08:38:25.672Z,5.60
2022-09-28T08:41:11.202Z,3.83
2022-09-28T08:43:51.218Z,3.43
2022-09-28T08:46:23.891Z,6.60
2022-09-28T08:49:23.896Z,5.70
2022-09-28T08:51:54.374Z,6.27
2022-09-28T08:54:32.057Z,5.23
2022-09-28T08:57:03.179Z,3.53
2022-09-28T08:59:41.785Z,5.90
2022-09-28T09:02:16.321Z,6.97
2022-09-28T09:04:44.626Z,5.43
2022-09-28T09:07:27.532Z,5.10
2022-09-28T09:10:04.173Z,4.17
2022-09-28T09:12:37.471Z,4.00
2022-09-28T09:15:22.848Z,3.83
2022-09-28T09:17:59.881Z,5.70
2022-09-28T09:20:37.118Z,5.60
2022-09-28T09:23:14.134Z,6.83
2022-09-28T09:25:43.493Z,5.87
2022-09-28T09:28:35.327Z,3.87
2022-09-28T09:31:09.797Z,4.50
2022-09-28T09:33:54.930Z,6.00
2022-09-28T09:36:38.209Z,4.90
2022-09-28T09:39:19.779Z,6.50
2022-09-28T09:41:58.571Z,5.47
2022-09-28T09:44:41.361Z,5.27
2022-09-28T09:47:13.522Z,3.70
2022-09-28T09:49:44.132Z,4.10
2022-09-28T09:52:15.380Z,5.43
2022-09-28T09:54:49.091Z,5.63
2022-09-28T09:57:19.743Z,5.67
2022-09-28T09:59:49.421Z,7.87
2022-09-28T10:02:24.710Z,5.00
2022-09-28T10:04:55.285Z,4.00
2022-09-28T10:07:26.473Z,4.13
2022-09-28T10:09:58.628Z,4.53
2022-09-28T10:12:27.107Z,3.27
2022-09-28T10:14:56.106Z,5.37
2022-09-28T10:17:27.361Z,5.20
2022-09-28T10:19:56.990Z,4.43
2022-09-28T10:22:27.563Z,4.17
2022-09-28T10:24:58.502Z,3.50
2022-09-28T10:27:29.456Z,3.03
2022-09-28T10:29:59.851Z,3.67
2022-09-28T10:32:37.207Z,5.23
2022-09-28T10:35:22.630Z,4.27
2022-09-28T10:37:54.284Z,5.17
2022-09-28T10:40:43.534Z,4.40
2022-09-28T10:43:20.343Z,4.80
2022-09-28T10:45:48.441Z,5.10
2022-09-28T10:48:20.511Z,4.40
2022-09-28T10:51:00.401Z,5.17
2022-09-28T10:53:28.346Z,4.20
2022-09-28T10:56:02.717Z,4.80
2022-09-28T10:58:36.297Z,4.80
2022-09-28T11:01:09.207Z,4.70
2022-09-28T11:03:42.417Z,4.50
2022-09-28T11:06:10.392Z,4.30
2022-09-28T11:08:40.202Z,5.87
2022-09-28T11:11:11.905Z,4.50
2022-09-28T11:13:47.153Z,4.17
2022-09-28T11:16:21.609Z,4.00
2022-09-28T11:18:49.583Z,4.33
2022-09-28T11:21:19.822Z,3.47
2022-09-28T11:24:01.288Z,3.80
2022-09-28T11:26:36.679Z,3.47
2022-09-28T11:29:04.834Z,3.23
2022-09-28T11:31:34.438Z,3.30
2022-09-28T11:34:05.233Z,2.80
2022-09-28T11:36:46.452Z,3.10
2022-09-28T11:39:20.292Z,2.40
2022-09-28T11:41:59.192Z,2.70
2022-09-28T11:44:39.479Z,2.50
2022-09-28T11:47:36.542Z,2.50
2022-09-28T11:50:08.286Z,3.90
2022-09-28T11:52:42.718Z,2.07
2022-09-28T11:55:14.993Z,3.07
2022-09-28T11:57:46.603Z,3.90
2022-09-28T12:00:16.796Z,2.20
2022-09-28T12:02:49.354Z,3.20
2022-09-28T12:05:22.963Z,2.70
2022-09-28T12:07:54.430Z,2.73
2022-09-28T12:10:31.314Z,2.67
2022-09-28T12:13:02.502Z,2.57
2022-09-28T12:16:10.319Z,2.80
2022-09-28T12:18:36.262Z,2.77
2022-09-28T12:21:11.862Z,2.40
2022-09-28T12:23:42.068Z,3.00
2022-09-28T12:26:21.953Z,2.60
2022-09-28T12:28:52.006Z,2.70
2022-09-28T12:31:24.753Z,2.30
2022-09-28T12:33:53.081Z,2.33
2022-09-28T12:36:32.609Z,2.87
2022-09-28T12:39:35.824Z,2.70
2022-09-28T12:42:17.350Z,3.20
2022-09-28T12:45:03.033Z,2.57
2022-09-28T12:48:03.320Z,2.60
2022-09-28T12:50:40.685Z,2.47
2022-09-28T12:53:28.005Z,2.97
2022-09-28T12:55:59.288Z,2.77
2022-09-28T12:58:44.789Z,2.70
2022-09-28T13:01:36.206Z,2.70
2022-09-28T13:04:19.355Z,3.67
2022-09-28T13:07:04.099Z,2.87
2022-09-28T13:09:37.237Z,2.17
2022-09-28T13:12:19.891Z,3.40
2022-09-28T13:15:10.573Z,2.37
2022-09-28T13:17:47.881Z,2.27
2022-09-28T13:20:25.680Z,2.40
2022-09-28T13:22:57.241Z,2.20
2022-09-28T13:25:28.626Z,2.20
2022-09-28T13:27:59.646Z,1.90
2022-09-28T13:30:27.899Z,2.57
2022-09-28T13:32:58.538Z,2.90
2022-09-28T13:35:26.593Z,2.33
2022-09-28T13:38:31.569Z,2.70
2022-09-28T13:41:19.052Z,2.70
2022-09-28T13:44:13.148Z,3.33
2022-09-28T13:46:46.521Z,12.27
2022-09-28T13:49:20.411Z,3.07
2022-09-28T13:51:58.201Z,3.80
2022-09-28T13:54:41.393Z,3.20
2022-09-28T13:57:19.723Z,2.87
2022-09-28T13:59:55.937Z,3.13
2022-09-28T14:02:32.616Z,3.13
2022-09-28T14:05:04.048Z,2.83
2022-09-28T14:07:59.808Z,3.03
2022-09-28T14:10:51.697Z,2.47
2022-09-28T14:13:57.045Z,2.50
2022-09-28T14:16:26.862Z,2.80
2022-09-28T14:18:57.193Z,2.83
2022-09-28T14:22:02.202Z,2.90
2022-09-28T14:24:40.054Z,2.77
2022-09-28T14:27:29.003Z,2.83
2022-09-28T14:30:08.703Z,2.10
2022-09-28T14:32:37.550Z,2.13
2022-09-28T14:35:07.122Z,2.80
2022-09-28T14:37:55.230Z,2.03
2022-09-28T14:40:45.930Z,2.73
2022-09-28T14:43:28.858Z,3.43
2022-09-28T14:46:45.661Z,2.90
2022-09-28T14:49:45.006Z,2.47
2022-09-28T14:52:13.873Z,3.60
2022-09-28T14:54:54.280Z,2.37
2022-09-28T14:57:25.773Z,2.90
2022-09-28T14:59:54.043Z,2.80
2022-09-28T15:02:26.546Z,2.70
2022-09-28T15:04:56.391Z,4.90
2022-09-28T15:07:27.226Z,2.40
2022-09-28T15:09:57.748Z,3.70
2022-09-28T15:12:29.702Z,3.90
2022-09-28T15:14:59.713Z,3.87
2022-09-28T15:17:28.801Z,4.00
2022-09-28T15:20:18.308Z,5.60
2022-09-28T15:22:46.982Z,3.47
2022-09-28T15:25:19.861Z,3.80
2022-09-28T15:27:54.115Z,5.63
2022-09-28T15:30:25.578Z,3.43
2022-09-28T15:32:56.628Z,3.00
2022-09-28T15:35:26.375Z,2.97
2022-09-28T15:37:55.560Z,3.00
2022-09-28T15:40:32.290Z,4.33
2022-09-28T15:43:00.719Z,3.30
2022-09-28T15:45:30.879Z,5.53
2022-09-28T15:48:21.328Z,5.90
2022-09-28T15:50:58.666Z,4.10
2022-09-28T15:53:26.709Z,3.20
2022-09-28T15:56:01.442Z,3.30
2022-09-28T15:58:29.742Z,3.00
2022-09-28T16:01:36.684Z,3.40
2022-09-28T16:04:33.953Z,3.40
2022-09-28T16:07:26.414Z,3.20
2022-09-28T16:09:59.766Z,3.30
2022-09-28T16:12:32.486Z,3.77
2022-09-28T16:15:05.212Z,2.83
2022-09-28T16:17:35.272Z,7.63
2022-09-28T16:20:05.569Z,3.93
2022-09-28T16:22:33.710Z,3.70
2022-09-28T16:25:02.191Z,3.33
2022-09-28T16:27:40.942Z,2.77
2022-09-28T16:30:20.178Z,3.37
2022-09-28T16:32:52.175Z,2.50
2022-09-28T16:35:25.510Z,3.23
2022-09-28T16:38:11.429Z,3.13
2022-09-28T16:40:41.042Z,2.73
2022-09-28T16:43:13.847Z,3.43
2022-09-28T16:45:41.768Z,3.03
2022-09-28T16:48:10.947Z,3.30
2022-09-28T16:50:38.874Z,2.70
2022-09-28T16:53:32.296Z,4.30
2022-09-28T16:56:00.735Z,3.57
2022-09-28T16:58:31.342Z,3.53
2022-09-28T17:00:59.540Z,4.27
2022-09-28T17:03:28.640Z,4.37
2022-09-28T17:05:56.748Z,4.57
2022-09-28T17:08:26.066Z,4.93
2022-09-28T17:11:14.016Z,4.63
2022-09-28T17:13:45.871Z,4.07
2022-09-28T17:16:15.717Z,4.73
2022-09-28T17:18:43.718Z,4.67
2022-09-28T17:21:13.446Z,4.47
2022-09-28T17:23:41.346Z,4.57
2022-09-28T17:26:09.907Z,4.90
2022-09-28T17:28:38.157Z,5.33
2022-09-28T17:31:08.479Z,4.60
2022-09-28T17:33:36.386Z,4.57
2022-09-28T17:36:05.611Z,4.53
2022-09-28T17:38:34.657Z,4.60
2022-09-28T17:41:02.654Z,4.33
2022-09-28T17:43:30.654Z,5.17
2022-09-28T17:45:59.239Z,4.63
2022-09-28T17:48:28.610Z,4.70
2022-09-28T17:50:56.473Z,3.17
2022-09-28T17:53:24.764Z,4.00
2022-09-28T17:55:52.835Z,4.17
2022-09-28T17:58:21.975Z,3.03
2022-09-28T18:00:52.358Z,2.77
2022-09-28T18:03:21.960Z,3.30
2022-09-28T18:05:59.484Z,4.93
2022-09-28T18:08:27.533Z,4.30
2022-09-28T18:10:56.798Z,2.67
2022-09-28T18:13:24.829Z,2.57
2022-09-28T18:15:52.915Z,3.40
2022-09-28T18:18:20.897Z,3.17
2022-09-28T18:20:48.914Z,3.13
2022-09-28T18:23:18.342Z,3.00
2022-09-28T18:25:46.845Z,3.07
2022-09-28T18:28:15.469Z,3.10
2022-09-28T18:30:44.915Z,2.77
2022-09-28T18:33:13.871Z,3.23
2022-09-28T18:35:42.222Z,2.87
2022-09-28T18:38:10.129Z,5.53
2022-09-28T18:40:39.521Z,4.90
2022-09-28T18:43:07.398Z,3.10
2022-09-28T18:45:35.814Z,5.30
2022-09-28T18:48:03.735Z,3.13
2022-09-28T18:50:31.761Z,3.83
2022-09-28T18:53:11.488Z,4.17
2022-09-28T18:55:41.539Z,3.90
2022-09-28T18:58:10.672Z,4.37
2022-09-28T19:00:40.122Z,3.67
2022-09-28T19:03:08.399Z,3.63
2022-09-28T19:05:36.369Z,4.20
2022-09-28T19:08:04.236Z,3.63
2022-09-28T19:10:32.141Z,3.17
2022-09-28T19:13:01.462Z,3.53
2022-09-28T19:15:29.538Z,3.63
2022-09-28T19:17:58.102Z,3.67
2022-09-28T19:20:26.095Z,3.57
2022-09-28T19:22:53.969Z,4.97
2022-09-28T19:25:21.869Z,3.80
2022-09-28T19:27:49.751Z,3.13
2022-09-28T19:30:19.360Z,3.33
2022-09-28T19:32:47.246Z,3.73
2022-09-28T19:35:15.145Z,3.63
2022-09-28T19:37:46.650Z,3.50
2022-09-28T19:40:14.553Z,3.43
2022-09-28T19:42:42.450Z,3.40
2022-09-28T19:45:10.930Z,3.73
2022-09-28T19:47:40.263Z,3.50
2022-09-28T19:50:10.225Z,3.27
2022-09-28T19:52:38.117Z,3.83
2022-09-28T19:55:06.761Z,3.80
2022-09-28T19:57:35.077Z,3.73
2022-09-28T20:00:03.989Z,3.37
2022-09-28T20:02:32.113Z,3.77
2022-09-28T20:05:01.473Z,3.57
2022-09-28T20:07:32.856Z,3.60
2022-09-28T20:10:02.251Z,3.67
2022-09-28T20:12:30.198Z,3.43
2022-09-28T20:14:58.061Z,3.70
2022-09-28T20:17:26.029Z,5.37
2022-09-28T20:19:53.929Z,4.03
2022-09-28T20:22:23.197Z,4.80
2022-09-28T20:24:51.262Z,4.10
2022-09-28T20:27:22.015Z,3.67
2022-09-28T20:29:52.181Z,3.60
2022-09-28T20:32:20.082Z,4.40
2022-09-28T20:34:48.128Z,3.93
2022-09-28T20:37:17.550Z,4.10
2022-09-28T20:39:46.937Z,4.13
2022-09-28T20:42:15.822Z,3.93
2022-09-28T20:44:44.045Z,3.53
2022-09-28T20:47:12.111Z,4.20
2022-09-28T20:49:40.026Z,4.00
2022-09-28T20:52:07.944Z,3.70
2022-09-28T20:54:35.918Z,3.50
2022-09-28T20:57:17.289Z,3.83
2022-09-28T20:59:45.235Z,5.07
2022-09-28T21:02:13.902Z,3.60
2022-09-28T21:04:41.990Z,3.40
2022-09-28T21:07:10.289Z,3.73
2022-09-28T21:09:38.414Z,3.43
2022-09-28T21:12:09.210Z,4.00
2022-09-28T21:14:37.102Z,3.43
2022-09-28T21:17:04.979Z,4.40
2022-09-28T21:19:32.896Z,5.57
2022-09-28T21:22:00.790Z,3.60
2022-09-28T21:24:28.692Z,3.87
2022-09-28T21:26:56.626Z,3.90
2022-09-28T21:29:26.279Z,3.70
2022-09-28T21:31:54.148Z,3.30
2022-09-28T21:34:22.434Z,3.37
2022-09-28T21:36:51.347Z,3.47
2022-09-28T21:39:20.298Z,3.30
2022-09-28T21:41:48.164Z,2.93
2022-09-28T21:44:16.031Z,3.30
2022-09-28T21:46:45.476Z,3.30
2022-09-28T21:49:14.429Z,3.00
2022-09-28T21:51:42.353Z,3.53
2022-09-28T21:54:11.929Z,3.10
2022-09-28T21:56:39.901Z,4.83
2022-09-28T21:59:07.776Z,3.50
2022-09-28T22:01:35.746Z,3.13
2022-09-28T22:04:05.060Z,3.53
2022-09-28T22:06:33.108Z,3.60
2022-09-28T22:09:01.094Z,3.00
2022-09-28T22:11:29.872Z,3.00
2022-09-28T22:13:59.066Z,2.67
2022-09-28T22:16:28.423Z,2.83
2022-09-28T22:18:56.469Z,3.20
2022-09-28T22:21:27.442Z,4.47
2022-09-28T22:23:55.437Z,3.50
2022-09-28T22:26:24.788Z,3.53
2022-09-28T22:28:54.251Z,3.07
2022-09-28T22:31:24.267Z,4.03
2022-09-28T22:33:52.282Z,3.07
2022-09-28T22:36:20.295Z,2.83
2022-09-28T22:38:50.227Z,2.70
2022-09-28T22:41:20.922Z,2.70
2022-09-28T22:43:49.924Z,2.70
2022-09-28T22:46:20.103Z,2.90
2022-09-28T22:48:48.952Z,2.77
2022-09-28T22:51:17.426Z,2.90
2022-09-28T22:53:45.662Z,3.60
2022-09-28T22:56:18.641Z,3.53
2022-09-28T22:58:48.008Z,4.97
2022-09-28T23:01:18.550Z,3.03
2022-09-28T23:03:47.067Z,2.93
2022-09-28T23:06:16.576Z,2.67
2022-09-28T23:08:45.554Z,4.47
2022-09-28T23:11:15.557Z,3.20
2022-09-28T23:13:43.743Z,2.40
2022-09-28T23:16:13.185Z,3.20
2022-09-28T23:18:42.020Z,2.93
2022-09-28T23:21:15.325Z,2.73
2022-09-28T23:23:43.581Z,2.80
2022-09-28T23:26:14.970Z,2.50
2022-09-28T23:28:42.966Z,3.07
2022-09-28T23:31:11.657Z,2.77
2022-09-28T23:33:39.674Z,2.50
2022-09-28T23:36:08.365Z,2.80
2022-09-28T23:38:36.329Z,3.20
2022-09-28T23:41:04.343Z,2.93
2022-09-28T23:43:33.698Z,3.50
2022-09-28T23:46:01.814Z,3.17
2022-09-28T23:48:29.949Z,3.60
2022-09-28T23:50:57.980Z,2.43
2022-09-28T23:53:25.950Z,3.00
2022-09-28T23:55:54.263Z,2.80
2022-09-28T23:58:22.569Z,2.57
